createdAt,value
2022-10-11T00:00:05.687Z,75.23
2022-10-11T00:00:14.233Z,75.22
2022-10-11T00:00:25.676Z,75.12
2022-10-11T00:00:34.228Z,75.24
2022-10-11T00:00:45.673Z,75.13
2022-10-11T00:00:56.800Z,75.61
2022-10-11T00:01:06.762Z,75.45
2022-10-11T00:01:16.302Z,75.32
2022-10-11T00:01:25.317Z,75.22
2022-10-11T00:01:36.818Z,75.19
2022-10-11T00:01:45.332Z,75.27
2022-10-11T00:01:55.283Z,75.17
2022-10-11T00:02:05.276Z,75.19
2022-10-11T00:02:15.284Z,75.22
2022-10-11T00:02:26.592Z,75.21
2022-10-11T00:02:35.254Z,75.29
2022-10-11T00:02:45.287Z,75.17
2022-10-11T00:02:55.293Z,75.17
2022-10-11T00:03:06.723Z,75.24
2022-10-11T00:03:15.264Z,75.30
2022-10-11T00:03:26.704Z,75.17
2022-10-11T00:03:36.205Z,75.27
2022-10-11T00:03:45.254Z,75.20
2022-10-11T00:03:55.312Z,75.14
2022-10-11T00:04:06.695Z,75.15
2022-10-11T00:04:16.204Z,75.27
2022-10-11T00:04:25.414Z,75.15
2022-10-11T00:04:35.241Z,75.08
2022-10-11T00:04:46.704Z,75.11
2022-10-11T00:04:56.704Z,75.22
2022-10-11T00:05:05.455Z,75.19
2022-10-11T00:05:15.286Z,75.11
2022-10-11T00:05:26.694Z,75.15
2022-10-11T00:05:36.195Z,75.20
2022-10-11T00:05:45.485Z,75.16
2022-10-11T00:05:55.265Z,75.14
2022-10-11T00:06:07.307Z,75.12
2022-10-11T00:06:15.447Z,75.27
2022-10-11T00:06:25.556Z,75.07
2022-10-11T00:06:36.785Z,75.08
2022-10-11T00:06:46.806Z,75.21
2022-10-11T00:06:55.544Z,75.17
2022-10-11T00:07:05.561Z,75.11
2022-10-11T00:07:16.785Z,75.13
2022-10-11T00:07:26.815Z,75.17
2022-10-11T00:07:35.566Z,75.13
2022-10-11T00:07:45.325Z,75.09
2022-10-11T00:07:56.804Z,75.13
2022-10-11T00:08:06.831Z,75.22
2022-10-11T00:08:15.336Z,75.15
2022-10-11T00:08:26.797Z,75.08
2022-10-11T00:08:36.806Z,75.21
2022-10-11T00:08:46.837Z,75.21
2022-10-11T00:08:55.647Z,75.17
2022-10-11T00:09:05.686Z,75.10
2022-10-11T00:09:15.340Z,75.14
2022-10-11T00:09:25.356Z,75.14
2022-10-11T00:09:36.766Z,75.11
2022-10-11T00:09:45.326Z,75.22
2022-10-11T00:09:55.453Z,75.11
2022-10-11T00:10:05.327Z,75.14
2022-10-11T00:10:15.325Z,75.11
2022-10-11T00:10:26.815Z,75.12
2022-10-11T00:10:35.327Z,75.21
2022-10-11T00:10:46.267Z,75.10
2022-10-11T00:10:56.776Z,75.14
2022-10-11T00:11:05.486Z,75.18
2022-10-11T00:11:16.216Z,75.06
2022-10-11T00:11:25.327Z,75.13
2022-10-11T00:11:36.276Z,75.11
2022-10-11T00:11:45.416Z,75.23
2022-10-11T00:11:56.756Z,75.21
2022-10-11T00:12:05.336Z,75.36
2022-10-11T00:12:15.336Z,75.28
2022-10-11T00:12:27.255Z,75.39
2022-10-11T00:12:35.327Z,75.62
2022-10-11T00:12:45.327Z,75.52
2022-10-11T00:12:56.777Z,75.55
2022-10-11T00:13:05.307Z,75.70
2022-10-11T00:13:16.277Z,75.54
2022-10-11T00:13:25.307Z,75.71
2022-10-11T00:13:35.318Z,75.71
2022-10-11T00:13:46.229Z,75.74
2022-10-11T00:13:55.307Z,75.81
2022-10-11T00:14:06.759Z,75.78
2022-10-11T00:14:15.306Z,75.97
2022-10-11T00:14:25.314Z,75.82
2022-10-11T00:14:35.297Z,75.91
2022-10-11T00:14:46.174Z,75.93
2022-10-11T00:14:56.738Z,76.07
2022-10-11T00:15:06.740Z,76.11
2022-10-11T00:15:15.287Z,76.12
2022-10-11T00:15:25.288Z,76.01
2022-10-11T00:15:35.308Z,75.92
2022-10-11T00:15:45.298Z,75.91
2022-10-11T00:15:55.275Z,75.91
2022-10-11T00:16:05.587Z,75.98
2022-10-11T00:16:16.746Z,75.98
2022-10-11T00:16:26.229Z,76.03
2022-10-11T00:16:36.738Z,75.91
2022-10-11T00:16:45.259Z,76.00
2022-10-11T00:16:55.327Z,75.82
2022-10-11T00:17:06.767Z,75.85
2022-10-11T00:17:16.148Z,76.06
2022-10-11T00:17:25.287Z,76.02
2022-10-11T00:17:35.302Z,76.00
2022-10-11T00:17:46.728Z,76.00
2022-10-11T00:17:55.310Z,76.14
2022-10-11T00:18:05.623Z,76.02
2022-10-11T00:18:16.725Z,76.13
2022-10-11T00:18:26.713Z,76.25
2022-10-11T00:18:35.270Z,76.20
2022-10-11T00:18:46.728Z,76.17
2022-10-11T00:18:56.219Z,76.25
2022-10-11T00:19:05.344Z,76.23
2022-10-11T00:19:15.252Z,76.22
2022-10-11T00:19:25.289Z,76.26
2022-10-11T00:19:35.286Z,76.31
2022-10-11T00:19:46.168Z,76.34
2022-10-11T00:19:56.708Z,76.38
2022-10-11T00:20:06.712Z,76.39
2022-10-11T00:20:15.236Z,76.30
2022-10-11T00:20:25.288Z,76.24
2022-10-11T00:20:36.091Z,76.27
2022-10-11T00:20:46.739Z,76.31
2022-10-11T00:20:55.250Z,76.35
2022-10-11T00:21:05.259Z,76.27
2022-10-11T00:21:15.240Z,76.25
2022-10-11T00:21:26.749Z,76.24
2022-10-11T00:21:36.190Z,76.32
2022-10-11T00:21:45.249Z,76.23
2022-10-11T00:21:55.259Z,76.17
2022-10-11T00:22:06.201Z,76.13
2022-10-11T00:22:16.698Z,76.30
2022-10-11T00:22:25.230Z,76.26
2022-10-11T00:22:35.231Z,76.17
2022-10-11T00:22:45.240Z,76.23
2022-10-11T00:22:55.271Z,76.28
2022-10-11T00:23:05.241Z,76.35
2022-10-11T00:23:16.714Z,76.37
2022-10-11T00:23:26.773Z,76.46
2022-10-11T00:23:36.673Z,76.50
2022-10-11T00:23:46.038Z,76.54
2022-10-11T00:23:55.247Z,76.61
2022-10-11T00:24:05.270Z,76.63
2022-10-11T00:24:15.208Z,76.72
2022-10-11T00:24:26.719Z,76.78
2022-10-11T00:24:35.480Z,76.98
2022-10-11T00:24:45.210Z,76.87
2022-10-11T00:24:56.672Z,76.96
2022-10-11T00:25:05.220Z,77.06
2022-10-11T00:25:15.269Z,76.90
2022-10-11T00:25:25.454Z,77.02
2022-10-11T00:25:35.492Z,77.06
2022-10-11T00:25:45.250Z,77.12
2022-10-11T00:25:55.475Z,77.13
2022-10-11T00:26:05.431Z,77.12
2022-10-11T00:26:15.249Z,77.14
2022-10-11T00:26:25.221Z,77.10
2022-10-11T00:26:35.230Z,77.05
2022-10-11T00:26:46.930Z,77.02
2022-10-11T00:26:55.460Z,77.14
2022-10-11T00:27:06.653Z,76.94
2022-10-11T00:27:15.540Z,77.03
2022-10-11T00:27:25.463Z,76.91
2022-10-11T00:27:35.498Z,76.86
2022-10-11T00:27:45.540Z,76.84
2022-10-11T00:27:55.569Z,76.80
2022-10-11T00:28:05.501Z,76.74
2022-10-11T00:28:16.701Z,76.71
2022-10-11T00:28:25.598Z,76.72
2022-10-11T00:28:35.557Z,76.59
2022-10-11T00:28:46.714Z,76.53
2022-10-11T00:28:55.275Z,76.58
2022-10-11T00:29:06.635Z,76.50
2022-10-11T00:29:16.171Z,76.53
2022-10-11T00:29:25.221Z,76.41
2022-10-11T00:29:35.190Z,76.33
2022-10-11T00:29:45.202Z,76.30
2022-10-11T00:29:56.641Z,76.33
2022-10-11T00:30:06.648Z,76.38
2022-10-11T00:30:16.211Z,76.37
2022-10-11T00:30:26.631Z,76.35
2022-10-11T00:30:35.252Z,76.43
2022-10-11T00:30:45.182Z,76.30
2022-10-11T00:30:55.372Z,76.37
2022-10-11T00:31:07.168Z,76.43
2022-10-11T00:31:15.211Z,76.37
2022-10-11T00:31:26.071Z,76.16
2022-10-11T00:31:36.699Z,76.23
2022-10-11T00:31:45.169Z,76.22
2022-10-11T00:31:55.199Z,76.07
2022-10-11T00:32:05.253Z,76.13
2022-10-11T00:32:15.213Z,76.16
2022-10-11T00:32:26.623Z,76.14
2022-10-11T00:32:35.702Z,76.24
2022-10-11T00:32:45.181Z,76.17
2022-10-11T00:32:55.292Z,76.18
2022-10-11T00:33:05.162Z,76.20
2022-10-11T00:33:15.187Z,76.17
2022-10-11T00:33:26.654Z,76.16
2022-10-11T00:33:36.633Z,76.27
2022-10-11T00:33:45.172Z,76.27
2022-10-11T00:33:55.179Z,76.17
2022-10-11T00:34:06.645Z,76.21
2022-10-11T00:34:16.622Z,76.31
2022-10-11T00:34:26.623Z,76.32
2022-10-11T00:34:35.172Z,76.34
2022-10-11T00:34:45.266Z,76.25
2022-10-11T00:34:55.199Z,76.31
2022-10-11T00:35:05.224Z,76.34
2022-10-11T00:35:16.633Z,76.38
2022-10-11T00:35:26.612Z,76.52
2022-10-11T00:35:36.094Z,76.45
2022-10-11T00:35:46.196Z,76.41
2022-10-11T00:35:55.153Z,76.43
2022-10-11T00:36:07.099Z,76.36
2022-10-11T00:36:16.724Z,76.60
2022-10-11T00:36:27.038Z,76.49
2022-10-11T00:36:35.280Z,76.52
2022-10-11T00:36:45.281Z,76.44
2022-10-11T00:36:56.740Z,76.50
2022-10-11T00:37:05.292Z,76.61
2022-10-11T00:37:15.283Z,76.54
2022-10-11T00:37:25.283Z,76.55
2022-10-11T00:37:36.724Z,76.51
2022-10-11T00:37:46.722Z,76.49
2022-10-11T00:37:56.757Z,76.42
2022-10-11T00:38:05.266Z,76.36
2022-10-11T00:38:16.712Z,76.31
2022-10-11T00:38:25.255Z,76.47
2022-10-11T00:38:35.267Z,76.35
2022-10-11T00:38:46.704Z,76.43
2022-10-11T00:38:55.401Z,76.56
2022-10-11T00:39:06.684Z,76.49
2022-10-11T00:39:15.266Z,76.71
2022-10-11T00:39:25.544Z,76.58
2022-10-11T00:39:36.694Z,76.77
2022-10-11T00:39:45.294Z,76.73
2022-10-11T00:39:55.265Z,76.55
2022-10-11T00:40:06.716Z,76.58
2022-10-11T00:40:15.243Z,76.63
2022-10-11T00:40:25.244Z,76.46
2022-10-11T00:40:35.253Z,76.47
2022-10-11T00:40:45.253Z,76.50
2022-10-11T00:40:55.283Z,76.56
2022-10-11T00:41:05.595Z,76.49
2022-10-11T00:41:15.251Z,76.44
2022-10-11T00:41:26.694Z,76.42
2022-10-11T00:41:36.739Z,76.47
2022-10-11T00:41:46.202Z,76.39
2022-10-11T00:41:56.674Z,76.37
2022-10-11T00:42:05.225Z,76.36
2022-10-11T00:42:16.674Z,76.23
2022-10-11T00:42:26.673Z,76.27
2022-10-11T00:42:36.685Z,76.24
2022-10-11T00:42:46.684Z,76.14
2022-10-11T00:42:56.695Z,76.11
2022-10-11T00:43:05.253Z,76.04
2022-10-11T00:43:15.205Z,76.04
2022-10-11T00:43:25.235Z,76.11
2022-10-11T00:43:36.685Z,76.11
2022-10-11T00:43:46.668Z,76.22
2022-10-11T00:43:56.725Z,76.21
2022-10-11T00:44:05.215Z,76.19
2022-10-11T00:44:15.284Z,76.07
2022-10-11T00:44:26.676Z,76.10
2022-10-11T00:44:35.824Z,76.12
2022-10-11T00:44:45.225Z,75.93
2022-10-11T00:44:56.674Z,75.84
2022-10-11T00:45:05.207Z,75.99
2022-10-11T00:45:15.355Z,75.82
2022-10-11T00:45:25.196Z,75.84
2022-10-11T00:45:35.216Z,75.79
2022-10-11T00:45:45.216Z,75.77
2022-10-11T00:45:55.215Z,75.72
2022-10-11T00:46:07.204Z,75.66
2022-10-11T00:46:16.695Z,75.69
2022-10-11T00:46:26.708Z,75.58
2022-10-11T00:46:35.416Z,75.52
2022-10-11T00:46:45.255Z,75.38
2022-10-11T00:46:56.099Z,75.41
2022-10-11T00:47:05.945Z,75.51
2022-10-11T00:47:16.187Z,75.44
2022-10-11T00:47:26.091Z,75.45
2022-10-11T00:47:35.267Z,75.48
2022-10-11T00:47:45.318Z,75.40
2022-10-11T00:47:55.247Z,75.36
2022-10-11T00:48:05.257Z,75.24
2022-10-11T00:48:15.260Z,75.20
2022-10-11T00:48:25.256Z,75.14
2022-10-11T00:48:35.742Z,75.13
2022-10-11T00:48:46.686Z,75.06
2022-10-11T00:48:55.260Z,75.02
2022-10-11T00:49:06.171Z,74.83
2022-10-11T00:49:16.688Z,74.85
2022-10-11T00:49:25.267Z,74.89
2022-10-11T00:49:36.697Z,74.74
2022-10-11T00:49:46.689Z,74.77
2022-10-11T00:49:55.916Z,74.70
2022-10-11T00:50:05.863Z,74.68
2022-10-11T00:50:16.686Z,74.67
2022-10-11T00:50:25.228Z,74.75
2022-10-11T00:50:36.694Z,74.53
2022-10-11T00:50:46.697Z,74.64
2022-10-11T00:50:56.177Z,74.59
2022-10-11T00:51:07.122Z,74.57
2022-10-11T00:51:16.218Z,74.77
2022-10-11T00:51:25.246Z,74.60
2022-10-11T00:51:36.708Z,74.65
2022-10-11T00:51:46.678Z,74.81
2022-10-11T00:51:55.248Z,74.81
2022-10-11T00:52:05.237Z,74.67
2022-10-11T00:52:15.245Z,74.77
2022-10-11T00:52:25.238Z,74.79
2022-10-11T00:52:36.679Z,74.68
2022-10-11T00:52:45.248Z,74.70
2022-10-11T00:52:55.235Z,74.55
2022-10-11T00:53:06.701Z,74.53
2022-10-11T00:53:16.177Z,74.64
2022-10-11T00:53:26.683Z,74.57
2022-10-11T00:53:35.227Z,74.64
2022-10-11T00:53:45.217Z,74.54
2022-10-11T00:53:55.267Z,74.55
2022-10-11T00:54:05.234Z,74.58
2022-10-11T00:54:15.197Z,74.58
2022-10-11T00:54:25.228Z,74.56
2022-10-11T00:54:35.288Z,74.58
2022-10-11T00:54:45.213Z,74.63
2022-10-11T00:54:56.122Z,74.68
2022-10-11T00:55:05.278Z,74.73
2022-10-11T00:55:15.210Z,74.66
2022-10-11T00:55:25.198Z,74.67
2022-10-11T00:55:35.278Z,74.67
2022-10-11T00:55:46.653Z,74.69
2022-10-11T00:55:55.208Z,74.77
2022-10-11T00:56:05.545Z,74.67
2022-10-11T00:56:15.211Z,74.77
2022-10-11T00:56:26.698Z,74.71
2022-10-11T00:56:35.218Z,74.87
2022-10-11T00:56:45.198Z,74.74
2022-10-11T00:56:55.363Z,74.72
2022-10-11T00:57:05.401Z,74.74
2022-10-11T00:57:15.429Z,74.81
2022-10-11T00:57:25.365Z,74.74
2022-10-11T00:57:35.188Z,74.73
2022-10-11T00:57:45.459Z,74.78
2022-10-11T00:57:55.362Z,74.78
2022-10-11T00:58:06.656Z,74.77
2022-10-11T00:58:15.325Z,74.79
2022-10-11T00:58:25.178Z,74.67
2022-10-11T00:58:35.398Z,74.66
2022-10-11T00:58:45.177Z,74.70
2022-10-11T00:58:55.257Z,74.69
2022-10-11T00:59:06.629Z,74.68
2022-10-11T00:59:16.662Z,74.76
2022-10-11T00:59:25.218Z,74.75
2022-10-11T00:59:35.180Z,74.66
2022-10-11T00:59:45.188Z,74.67
2022-10-11T00:59:56.668Z,74.66
2022-10-11T01:00:06.620Z,74.76
2022-10-11T01:00:16.650Z,74.72
2022-10-11T01:00:26.631Z,74.67
2022-10-11T01:00:35.190Z,74.67
2022-10-11T01:00:45.189Z,74.59
2022-10-11T01:00:56.665Z,74.59
2022-10-11T01:01:06.703Z,74.69
2022-10-11T01:01:15.258Z,74.67
2022-10-11T01:01:26.766Z,74.58
2022-10-11T01:01:36.655Z,74.71
2022-10-11T01:01:46.156Z,74.70
2022-10-11T01:01:56.621Z,74.68
2022-10-11T01:02:06.603Z,74.68
2022-10-11T01:02:16.137Z,74.65
2022-10-11T01:02:25.210Z,74.64
2022-10-11T01:02:35.187Z,74.60
2022-10-11T01:02:45.151Z,74.57
2022-10-11T01:02:55.212Z,74.61
2022-10-11T01:03:05.139Z,74.65
2022-10-11T01:03:16.611Z,74.61
2022-10-11T01:03:25.153Z,74.68
2022-10-11T01:03:35.160Z,74.56
2022-10-11T01:03:45.160Z,74.59
2022-10-11T01:03:55.407Z,74.62
2022-10-11T01:04:06.580Z,74.63
2022-10-11T01:04:16.594Z,74.70
2022-10-11T01:04:26.190Z,74.64
2022-10-11T01:04:36.594Z,74.63
2022-10-11T01:04:45.141Z,74.66
2022-10-11T01:05:18.024Z,74.55
2022-10-11T01:05:28.837Z,74.96
2022-10-11T01:05:29.165Z,75.16
2022-10-11T01:05:29.514Z,75.32
2022-10-11T01:05:35.492Z,75.31
2022-10-11T01:05:45.598Z,75.06
2022-10-11T01:05:55.491Z,74.88
2022-10-11T01:06:06.010Z,74.86
2022-10-11T01:06:15.570Z,74.86
2022-10-11T01:06:26.951Z,74.83
2022-10-11T01:06:36.932Z,74.94
2022-10-11T01:06:45.505Z,74.93
2022-10-11T01:06:55.521Z,74.81
2022-10-11T01:07:05.471Z,74.90
2022-10-11T01:07:15.482Z,74.86
2022-10-11T01:07:26.931Z,74.86
2022-10-11T01:07:35.484Z,74.97
2022-10-11T01:07:45.701Z,74.83
2022-10-11T01:07:56.912Z,74.91
2022-10-11T01:08:05.483Z,74.95
2022-10-11T01:08:15.480Z,74.84
2022-10-11T01:08:25.476Z,74.87
2022-10-11T01:08:35.480Z,74.86
2022-10-11T01:08:45.488Z,74.83
2022-10-11T01:08:56.941Z,74.87
2022-10-11T01:09:06.920Z,74.96
2022-10-11T01:09:16.954Z,74.93
2022-10-11T01:09:25.473Z,74.93
2022-10-11T01:09:36.921Z,74.85
2022-10-11T01:09:46.453Z,74.94
2022-10-11T01:09:55.474Z,74.87
2022-10-11T01:10:05.484Z,74.85
2022-10-11T01:10:16.441Z,74.89
2022-10-11T01:10:26.925Z,74.96
2022-10-11T01:10:35.892Z,75.05
2022-10-11T01:10:45.592Z,75.08
2022-10-11T01:10:55.470Z,75.15
2022-10-11T01:11:06.405Z,75.21
2022-10-11T01:11:15.459Z,75.28
2022-10-11T01:11:26.914Z,75.25
2022-10-11T01:11:36.884Z,75.40
2022-10-11T01:11:46.892Z,75.37
2022-10-11T01:11:56.912Z,75.38
2022-10-11T01:12:06.914Z,75.32
2022-10-11T01:12:16.893Z,75.35
2022-10-11T01:12:25.466Z,75.37
2022-10-11T01:12:36.902Z,75.30
2022-10-11T01:12:46.884Z,75.44
2022-10-11T01:12:56.892Z,75.45
2022-10-11T01:13:05.432Z,75.51
2022-10-11T01:13:15.460Z,75.41
2022-10-11T01:13:26.902Z,75.50
2022-10-11T01:13:36.396Z,75.62
2022-10-11T01:13:46.882Z,75.54
2022-10-11T01:13:55.640Z,75.65
2022-10-11T01:14:06.913Z,75.59
2022-10-11T01:14:16.390Z,75.73
2022-10-11T01:14:25.475Z,75.74
2022-10-11T01:14:36.124Z,75.72
2022-10-11T01:14:45.414Z,75.82
2022-10-11T01:14:56.093Z,75.85
2022-10-11T01:15:05.444Z,76.02
2022-10-11T01:15:16.002Z,75.93
2022-10-11T01:15:25.412Z,75.97
2022-10-11T01:15:36.139Z,75.92
2022-10-11T01:15:46.862Z,76.02
2022-10-11T01:15:55.456Z,76.04
2022-10-11T01:16:05.844Z,75.97
2022-10-11T01:16:16.381Z,76.04
2022-10-11T01:16:25.416Z,76.02
2022-10-11T01:16:36.874Z,75.97
2022-10-11T01:16:46.413Z,76.08
2022-10-11T01:16:55.423Z,75.99
2022-10-11T01:17:05.415Z,75.90
2022-10-11T01:17:15.544Z,75.93
2022-10-11T01:17:26.846Z,76.00
2022-10-11T01:17:36.244Z,76.03
2022-10-11T01:17:46.854Z,75.95
2022-10-11T01:17:55.403Z,76.01
2022-10-11T01:18:06.864Z,75.85
2022-10-11T01:18:16.390Z,75.97
2022-10-11T01:18:25.404Z,75.91
2022-10-11T01:18:35.428Z,75.84
2022-10-11T01:18:45.394Z,75.83
2022-10-11T01:18:56.374Z,75.83
2022-10-11T01:19:06.853Z,75.84
2022-10-11T01:19:16.845Z,75.77
2022-10-11T01:19:25.420Z,75.74
2022-10-11T01:19:35.399Z,75.66
2022-10-11T01:19:45.393Z,75.69
2022-10-11T01:19:55.424Z,75.63
2022-10-11T01:20:05.394Z,75.68
2022-10-11T01:20:16.245Z,75.66
2022-10-11T01:20:26.824Z,75.82
2022-10-11T01:20:35.446Z,75.82
2022-10-11T01:20:45.382Z,75.74
2022-10-11T01:20:56.844Z,75.88
2022-10-11T01:21:05.399Z,75.94
2022-10-11T01:21:16.886Z,75.82
2022-10-11T01:21:25.388Z,75.91
2022-10-11T01:21:35.395Z,75.86
2022-10-11T01:21:45.422Z,75.78
2022-10-11T01:21:56.836Z,75.81
2022-10-11T01:22:06.825Z,75.91
2022-10-11T01:22:15.368Z,75.93
2022-10-11T01:22:26.830Z,75.84
2022-10-11T01:22:35.375Z,75.89
2022-10-11T01:22:45.385Z,75.80
2022-10-11T01:22:55.382Z,75.84
2022-10-11T01:23:06.827Z,75.79
2022-10-11T01:23:16.805Z,75.84
2022-10-11T01:23:25.364Z,75.72
2022-10-11T01:23:36.825Z,75.57
2022-10-11T01:23:46.805Z,75.58
2022-10-11T01:23:56.842Z,75.53
2022-10-11T01:24:08.791Z,75.52
2022-10-11T01:24:15.383Z,75.72
2022-10-11T01:24:26.833Z,75.65
2022-10-11T01:24:35.363Z,75.63
2022-10-11T01:24:45.384Z,75.50
2022-10-11T01:24:55.367Z,75.43
2022-10-11T01:25:05.354Z,75.44
2022-10-11T01:25:16.834Z,75.39
2022-10-11T01:25:25.347Z,75.43
2022-10-11T01:25:36.807Z,75.24
2022-10-11T01:25:45.345Z,75.38
2022-10-11T01:25:55.348Z,75.27
2022-10-11T01:26:07.257Z,75.29
2022-10-11T01:26:15.335Z,75.43
2022-10-11T01:26:25.423Z,75.24
2022-10-11T01:26:35.348Z,75.24
2022-10-11T01:26:45.350Z,75.15
2022-10-11T01:26:56.116Z,75.10
2022-10-11T01:27:06.786Z,75.12
2022-10-11T01:27:15.346Z,75.08
2022-10-11T01:27:25.326Z,74.96
2022-10-11T01:27:36.793Z,74.99
2022-10-11T01:27:46.775Z,75.09
2022-10-11T01:27:55.666Z,75.09
2022-10-11T01:28:05.330Z,75.02
2022-10-11T01:28:16.855Z,75.04
2022-10-11T01:28:25.358Z,75.13
2022-10-11T01:28:35.409Z,75.00
2022-10-11T01:28:46.838Z,74.97
2022-10-11T01:28:55.936Z,75.00
2022-10-11T01:29:05.919Z,74.91
2022-10-11T01:29:15.946Z,74.87
2022-10-11T01:29:26.760Z,74.85
2022-10-11T01:29:35.335Z,74.92
2022-10-11T01:29:45.958Z,74.80
2022-10-11T01:29:55.596Z,74.87
2022-10-11T01:30:05.308Z,74.90
2022-10-11T01:30:15.366Z,74.90
2022-10-11T01:30:25.308Z,74.89
2022-10-11T01:30:35.926Z,74.91
2022-10-11T01:30:45.296Z,74.97
2022-10-11T01:30:56.795Z,74.93
2022-10-11T01:31:05.287Z,75.08
2022-10-11T01:31:15.969Z,74.94
2022-10-11T01:31:26.739Z,75.04
2022-10-11T01:31:47.456Z,75.52
2022-10-11T01:31:56.859Z,75.35
2022-10-11T01:32:07.093Z,75.26
2022-10-11T01:32:16.836Z,75.23
2022-10-11T01:32:26.852Z,75.23
2022-10-11T01:32:36.837Z,75.20
2022-10-11T01:32:46.874Z,75.26
2022-10-11T01:32:58.277Z,75.25
2022-10-11T01:33:08.276Z,75.41
2022-10-11T01:33:18.333Z,75.40
2022-10-11T01:33:26.967Z,75.42
2022-10-11T01:33:36.839Z,75.35
2022-10-11T01:33:46.864Z,75.42
2022-10-11T01:33:56.827Z,75.46
2022-10-11T01:34:06.830Z,75.47
2022-10-11T01:34:16.839Z,75.49
2022-10-11T01:34:28.305Z,75.50
2022-10-11T01:34:37.206Z,75.58
2022-10-11T01:34:48.268Z,75.44
2022-10-11T01:34:58.278Z,75.53
2022-10-11T01:35:08.271Z,75.54
2022-10-11T01:35:17.618Z,75.56
2022-10-11T01:35:26.815Z,75.49
2022-10-11T01:35:38.278Z,75.46
2022-10-11T01:35:46.834Z,75.58
2022-10-11T01:35:56.835Z,75.45
2022-10-11T01:36:07.314Z,75.45
2022-10-11T01:36:16.868Z,75.48
2022-10-11T01:36:26.835Z,75.42
2022-10-11T01:36:38.267Z,75.39
2022-10-11T01:36:48.258Z,75.50
2022-10-11T01:36:58.331Z,75.46
2022-10-11T01:37:08.248Z,75.45
2022-10-11T01:37:18.258Z,75.50
2022-10-11T01:37:27.749Z,75.53
2022-10-11T01:37:38.260Z,75.49
2022-10-11T01:37:46.791Z,75.53
2022-10-11T01:37:57.624Z,75.45
2022-10-11T01:38:06.868Z,75.56
2022-10-11T01:38:18.229Z,75.51
2022-10-11T01:38:26.828Z,75.61
2022-10-11T01:38:38.292Z,75.53
2022-10-11T01:38:48.239Z,75.61
2022-10-11T01:38:57.531Z,75.59
2022-10-11T01:39:06.898Z,75.57
2022-10-11T01:39:16.780Z,75.56
2022-10-11T01:39:27.737Z,75.63
2022-10-11T01:39:36.898Z,75.68
2022-10-11T01:39:46.777Z,75.60
2022-10-11T01:39:56.798Z,75.69
2022-10-11T01:40:08.228Z,75.70
2022-10-11T01:40:16.908Z,75.86
2022-10-11T01:40:26.780Z,75.81
2022-10-11T01:40:36.822Z,75.81
2022-10-11T01:40:48.248Z,75.85
2022-10-11T01:40:58.210Z,76.00
2022-10-11T01:41:08.223Z,76.00
2022-10-11T01:41:18.219Z,75.99
2022-10-11T01:41:28.219Z,75.99
2022-10-11T01:41:38.241Z,76.03
2022-10-11T01:41:48.291Z,76.06
2022-10-11T01:41:58.237Z,76.05
2022-10-11T01:42:08.229Z,76.05
2022-10-11T01:42:16.750Z,76.03
2022-10-11T01:42:28.222Z,75.92
2022-10-11T01:42:38.200Z,76.01
2022-10-11T01:42:46.781Z,75.99
2022-10-11T01:42:57.666Z,75.98
2022-10-11T01:43:06.784Z,76.06
2022-10-11T01:43:18.218Z,75.94
2022-10-11T01:43:26.759Z,76.00
2022-10-11T01:43:36.754Z,75.87
2022-10-11T01:43:48.480Z,75.87
2022-10-11T01:43:56.764Z,75.96
2022-10-11T01:44:07.540Z,75.85
2022-10-11T01:44:16.790Z,75.86
2022-10-11T01:44:28.230Z,75.80
2022-10-11T01:44:38.189Z,75.94
2022-10-11T01:44:48.200Z,75.96
2022-10-11T01:44:56.740Z,75.92
2022-10-11T01:45:06.790Z,75.84
2022-10-11T01:45:16.770Z,75.83
2022-10-11T01:45:28.214Z,75.88
2022-10-11T01:45:38.185Z,75.94
2022-10-11T01:45:46.753Z,75.92
2022-10-11T01:45:56.751Z,75.83
2022-10-11T01:46:08.567Z,75.86
2022-10-11T01:46:16.741Z,75.98
2022-10-11T01:46:27.734Z,75.83
2022-10-11T01:46:36.731Z,75.90
2022-10-11T01:46:46.779Z,75.81
2022-10-11T01:46:56.790Z,75.82
2022-10-11T01:47:08.161Z,75.82
2022-10-11T01:47:16.731Z,75.90
2022-10-11T01:47:26.740Z,75.85
2022-10-11T01:47:38.210Z,75.86
2022-10-11T01:47:46.781Z,76.02
2022-10-11T01:47:56.750Z,75.88
2022-10-11T01:48:06.771Z,75.92
2022-10-11T01:48:16.790Z,75.95
2022-10-11T01:48:28.186Z,75.99
2022-10-11T01:48:36.860Z,76.11
2022-10-11T01:48:46.790Z,76.07
2022-10-11T01:48:56.830Z,76.02
2022-10-11T01:49:06.699Z,75.99
2022-10-11T01:49:16.730Z,76.01
2022-10-11T01:49:27.541Z,76.00
2022-10-11T01:49:36.760Z,76.08
2022-10-11T01:49:48.143Z,76.03
2022-10-11T01:49:56.720Z,76.12
2022-10-11T01:50:08.175Z,75.99
2022-10-11T01:50:16.701Z,76.10
2022-10-11T01:50:26.719Z,76.03
2022-10-11T01:50:36.711Z,76.05
2022-10-11T01:50:46.712Z,76.09
2022-10-11T01:50:58.161Z,76.07
2022-10-11T01:51:06.891Z,76.18
2022-10-11T01:51:18.151Z,76.09
2022-10-11T01:51:28.140Z,76.20
2022-10-11T01:51:38.182Z,76.18
2022-10-11T01:51:47.783Z,76.19
2022-10-11T01:51:58.165Z,76.14
2022-10-11T01:52:08.152Z,76.21
2022-10-11T01:52:17.661Z,76.17
2022-10-11T01:52:26.689Z,76.19
2022-10-11T01:52:38.143Z,76.17
2022-10-11T01:52:48.152Z,76.26
2022-10-11T01:52:56.702Z,76.25
2022-10-11T01:53:08.162Z,76.19
2022-10-11T01:53:18.132Z,76.16
2022-10-11T01:53:28.184Z,76.12
2022-10-11T01:53:38.123Z,76.05
2022-10-11T01:53:46.696Z,76.05
2022-10-11T01:53:56.694Z,75.97
2022-10-11T01:54:07.604Z,75.97
2022-10-11T01:54:18.141Z,76.03
2022-10-11T01:54:39.277Z,76.06
2022-10-11T01:55:03.884Z,76.30
2022-10-11T01:55:08.108Z,76.53
2022-10-11T01:55:09.265Z,76.71
2022-10-11T01:55:09.958Z,76.79
2022-10-11T01:55:17.163Z,76.84
2022-10-11T01:55:27.102Z,76.62
2022-10-11T01:55:37.152Z,76.49
2022-10-11T01:55:47.153Z,76.45
2022-10-11T01:55:57.183Z,76.41
2022-10-11T01:56:07.817Z,76.42
2022-10-11T01:56:17.101Z,76.52
2022-10-11T01:56:28.553Z,76.46
2022-10-11T01:56:38.552Z,76.63
2022-10-11T01:56:48.062Z,76.58
2022-10-11T01:56:57.189Z,76.61
2022-10-11T01:57:08.543Z,76.56
2022-10-11T01:57:18.073Z,76.66
2022-10-11T01:57:28.552Z,76.61
2022-10-11T01:57:38.572Z,76.59
2022-10-11T01:57:48.074Z,76.61
2022-10-11T01:57:58.558Z,76.57
2022-10-11T01:58:08.543Z,76.60
2022-10-11T01:58:17.143Z,76.58
2022-10-11T01:58:28.594Z,76.48
2022-10-11T01:58:37.113Z,76.61
2022-10-11T01:58:47.114Z,76.54
2022-10-11T01:58:58.543Z,76.50
2022-10-11T01:59:08.533Z,76.59
2022-10-11T01:59:18.033Z,76.53
2022-10-11T01:59:28.559Z,76.47
2022-10-11T01:59:37.091Z,76.53
2022-10-11T01:59:47.104Z,76.43
2022-10-11T01:59:58.566Z,76.47
2022-10-11T02:00:08.514Z,76.53
2022-10-11T02:00:17.524Z,76.52
2022-10-11T02:00:27.076Z,76.41
2022-10-11T02:00:37.085Z,76.36
2022-10-11T02:00:47.113Z,76.29
2022-10-11T02:00:57.074Z,76.30
2022-10-11T02:01:08.560Z,76.25
2022-10-11T02:01:17.146Z,76.35
2022-10-11T02:01:27.221Z,76.22
2022-10-11T02:01:38.597Z,76.23
2022-10-11T02:01:47.146Z,76.31
2022-10-11T02:01:57.136Z,76.19
2022-10-11T02:02:08.524Z,76.18
2022-10-11T02:02:18.514Z,76.35
2022-10-11T02:02:27.061Z,76.24
2022-10-11T02:02:37.064Z,76.15
2022-10-11T02:02:48.513Z,76.20
2022-10-11T02:02:57.074Z,76.33
2022-10-11T02:03:07.062Z,76.15
2022-10-11T02:03:18.567Z,76.13
2022-10-11T02:03:27.064Z,76.23
2022-10-11T02:03:38.508Z,76.09
2022-10-11T02:03:48.524Z,76.24
2022-10-11T02:03:58.505Z,76.20
2022-10-11T02:04:07.995Z,76.24
2022-10-11T02:04:18.494Z,76.20
2022-10-11T02:04:27.895Z,76.23
2022-10-11T02:04:38.514Z,76.21
2022-10-11T02:04:47.035Z,76.26
2022-10-11T02:04:57.045Z,76.13
2022-10-11T02:05:07.831Z,76.21
2022-10-11T02:05:17.054Z,76.23
2022-10-11T02:05:28.494Z,76.22
2022-10-11T02:05:37.045Z,76.29
2022-10-11T02:05:48.023Z,76.19
2022-10-11T02:05:58.497Z,76.25
2022-10-11T02:06:07.718Z,76.23
2022-10-11T02:06:17.044Z,76.19
2022-10-11T02:06:28.496Z,76.17
2022-10-11T02:06:38.495Z,76.34
2022-10-11T02:06:47.045Z,76.26
2022-10-11T02:06:57.027Z,76.14
2022-10-11T02:07:07.035Z,76.21
2022-10-11T02:07:17.035Z,76.21
2022-10-11T02:07:28.505Z,76.23
2022-10-11T02:07:37.105Z,76.33
2022-10-11T02:07:47.015Z,76.23
2022-10-11T02:07:57.035Z,76.29
2022-10-11T02:08:07.056Z,76.31
2022-10-11T02:08:18.449Z,76.43
2022-10-11T02:08:27.068Z,76.54
2022-10-11T02:08:37.035Z,76.52
2022-10-11T02:08:47.013Z,76.63
2022-10-11T02:08:57.019Z,76.68